createdAt,value
2022-10-06T00:02:02.318Z,101180.19
2022-10-06T00:04:28.801Z,101170.50
2022-10-06T00:06:55.251Z,101184.13
2022-10-06T00:09:21.815Z,101193.50
2022-10-06T00:11:48.319Z,101183.84
2022-10-06T00:14:14.818Z,101194.06
2022-10-06T00:16:41.363Z,101198.25
2022-10-06T00:19:07.926Z,101209.78
2022-10-06T00:21:34.389Z,101204.81
2022-10-06T00:24:00.924Z,101217.13
2022-10-06T00:26:27.462Z,101213.97
2022-10-06T00:28:53.983Z,101218.94
2022-10-06T00:31:20.672Z,101225.22
2022-10-06T00:33:49.403Z,101228.91
2022-10-06T00:36:16.057Z,101235.44
2022-10-06T00:38:42.789Z,101220.78
2022-10-06T00:41:16.366Z,101236.47
2022-10-06T00:43:47.833Z,101245.13
2022-10-06T00:46:17.432Z,101244.34
2022-10-06T00:48:46.913Z,101236.47
2022-10-06T00:51:14.221Z,101257.66
2022-10-06T00:53:42.071Z,101254.78
2022-10-06T00:56:08.901Z,101268.41
2022-10-06T00:58:35.743Z,101261.06
2022-10-06T01:01:03.879Z,101267.34
2022-10-06T01:03:50.936Z,101265.78
2022-10-06T01:06:17.438Z,101269.94
2022-10-06T01:08:44.583Z,101268.09
2022-10-06T01:11:15.549Z,101267.56
2022-10-06T01:13:44.507Z,101278.06
2022-10-06T01:16:27.023Z,101294.03
2022-10-06T01:18:55.789Z,101287.72
2022-10-06T01:21:34.265Z,101292.16
2022-10-06T01:24:03.489Z,101287.22
2022-10-06T01:26:33.924Z,101290.31
2022-10-06T01:29:01.057Z,101291.91
2022-10-06T01:31:28.706Z,101294.50
2022-10-06T01:33:55.850Z,101317.56
2022-10-06T01:36:22.918Z,101307.31
2022-10-06T01:38:51.356Z,101312.31
2022-10-06T01:41:18.081Z,101318.56
2022-10-06T01:43:45.515Z,101321.19
2022-10-06T01:46:12.862Z,101333.47
2022-10-06T01:48:40.725Z,101341.84
2022-10-06T01:51:13.710Z,101346.03
2022-10-06T01:53:40.941Z,101339.47
2022-10-06T01:56:07.569Z,101336.31
2022-10-06T01:58:34.395Z,101360.16
2022-10-06T02:01:08.877Z,101359.34
2022-10-06T02:03:37.910Z,101357.78
2022-10-06T02:06:05.230Z,101361.94
2022-10-06T02:08:33.057Z,101364.25
2022-10-06T02:11:11.417Z,101362.41
2022-10-06T02:13:40.700Z,101375.78
2022-10-06T02:16:08.852Z,101375.50
2022-10-06T02:18:36.195Z,101384.66
2022-10-06T02:21:03.385Z,101380.66
2022-10-06T02:23:30.975Z,101392.22
2022-10-06T02:26:01.938Z,101392.44
2022-10-06T02:28:30.005Z,101405.28
2022-10-06T02:31:03.956Z,101410.72
2022-10-06T02:33:30.849Z,101421.47
2022-10-06T02:35:58.280Z,101429.81
2022-10-06T02:38:27.641Z,101430.84
2022-10-06T02:40:55.123Z,101437.88
2022-10-06T02:43:21.935Z,101431.84
2022-10-06T02:45:59.565Z,101435.72
2022-10-06T02:48:27.684Z,101444.38
2022-10-06T02:51:02.972Z,101454.31
2022-10-06T02:53:29.619Z,101455.34
2022-10-06T02:56:08.034Z,101457.91
2022-10-06T02:58:34.695Z,101456.34
2022-10-06T03:01:09.360Z,101464.66
2022-10-06T03:03:37.011Z,101468.84
2022-10-06T03:06:06.639Z,101480.59
2022-10-06T03:08:34.050Z,101479.00
2022-10-06T03:11:06.616Z,101480.28
2022-10-06T03:13:33.626Z,101495.69
2022-10-06T03:16:00.300Z,101486.97
2022-10-06T03:18:28.214Z,101522.09
2022-10-06T03:21:00.196Z,101504.75
2022-10-06T03:23:27.817Z,101518.63
2022-10-06T03:25:58.088Z,101521.22
2022-10-06T03:28:25.293Z,101520.91
2022-10-06T03:30:52.654Z,101533.72
2022-10-06T03:33:19.161Z,101539.16
2022-10-06T03:35:46.655Z,101533.41
2022-10-06T03:38:14.268Z,101545.91
2022-10-06T03:40:40.911Z,101550.09
2022-10-06T03:43:09.808Z,101565.78
2022-10-06T03:45:36.389Z,101559.72
2022-10-06T03:48:02.954Z,101556.56
2022-10-06T03:50:29.642Z,101565.69
2022-10-06T03:52:56.463Z,101580.59
2022-10-06T03:55:23.135Z,101579.47
2022-10-06T03:57:49.744Z,101587.81
2022-10-06T04:00:16.555Z,101593.78
2022-10-06T04:02:43.599Z,101608.97
2022-10-06T04:05:10.184Z,101605.28
2022-10-06T04:07:36.715Z,101596.34
2022-10-06T04:10:03.660Z,101606.47
2022-10-06T04:12:30.324Z,101603.09
2022-10-06T04:15:00.119Z,101602.22
2022-10-06T04:17:27.843Z,101606.69
2022-10-06T04:19:55.152Z,101612.44
2022-10-06T04:22:21.671Z,101618.69
2022-10-06T04:24:48.248Z,101610.06
2022-10-06T04:27:29.804Z,101622.03
2022-10-06T04:30:12.674Z,101629.13
2022-10-06T04:32:40.091Z,101624.84
2022-10-06T04:35:07.088Z,101632.97
2022-10-06T04:37:33.644Z,101642.88
2022-10-06T04:40:00.509Z,101647.84
2022-10-06T04:42:34.637Z,101634.47
2022-10-06T04:45:04.462Z,101639.41
2022-10-06T04:47:31.711Z,101648.53
2022-10-06T04:49:58.526Z,101654.28
2022-10-06T04:52:25.362Z,101665.31
2022-10-06T04:54:52.387Z,101665.81
2022-10-06T04:57:19.454Z,101676.19
2022-10-06T05:00:08.023Z,101677.47
2022-10-06T05:02:38.038Z,101687.41
2022-10-06T05:05:05.873Z,101684.22
2022-10-06T05:07:32.587Z,101699.41
2022-10-06T05:09:59.286Z,101706.91
2022-10-06T05:12:26.372Z,101718.72
2022-10-06T05:14:53.326Z,101716.81
2022-10-06T05:17:19.866Z,101720.22
2022-10-06T05:19:47.264Z,101731.72
2022-10-06T05:22:13.823Z,101740.84
2022-10-06T05:24:40.532Z,101747.84
2022-10-06T05:27:07.040Z,101745.97
2022-10-06T05:29:34.623Z,101747.25
2022-10-06T05:32:02.444Z,101752.69
2022-10-06T05:34:29.378Z,101758.94
2022-10-06T05:36:55.924Z,101769.66
2022-10-06T05:39:22.407Z,101771.41
2022-10-06T05:41:53.037Z,101780.53
2022-10-06T05:44:19.561Z,101773.22
2022-10-06T05:46:46.636Z,101788.84
2022-10-06T05:49:13.475Z,101791.72
2022-10-06T05:51:47.959Z,101799.72
2022-10-06T05:54:19.175Z,101803.91
2022-10-06T05:56:45.704Z,101803.91
2022-10-06T05:59:12.326Z,101808.03
2022-10-06T06:01:40.768Z,101807.44
2022-10-06T06:04:14.743Z,101827.09
2022-10-06T06:06:48.781Z,101841.94
2022-10-06T06:09:28.138Z,101836.34
2022-10-06T06:12:04.215Z,101838.72
2022-10-06T06:15:07.722Z,101846.28
2022-10-06T06:17:39.420Z,101859.81
2022-10-06T06:20:07.157Z,101859.53
2022-10-06T06:22:34.226Z,101872.31
2022-10-06T06:25:00.922Z,101880.94
2022-10-06T06:27:27.449Z,101875.19
2022-10-06T06:29:57.354Z,101881.44
2022-10-06T06:32:24.989Z,101876.94
2022-10-06T06:34:52.787Z,101879.03
2022-10-06T06:37:19.541Z,101901.69
2022-10-06T06:39:47.236Z,101901.69
2022-10-06T06:42:13.898Z,101914.00
2022-10-06T06:45:02.847Z,101913.66
2022-10-06T06:47:35.014Z,101917.34
2022-10-06T06:50:05.139Z,101922.78
2022-10-06T06:52:32.474Z,101928.53
2022-10-06T06:54:59.592Z,101929.00
2022-10-06T06:57:27.516Z,101933.97
2022-10-06T06:59:57.032Z,101942.56
2022-10-06T07:02:29.195Z,101950.72
2022-10-06T07:04:56.393Z,101947.06
2022-10-06T07:07:23.192Z,101964.28
2022-10-06T07:09:49.685Z,101968.75
2022-10-06T07:12:18.242Z,101968.44
2022-10-06T07:15:08.702Z,101973.72
2022-10-06T07:17:58.052Z,101977.84
2022-10-06T07:20:43.226Z,101982.81
2022-10-06T07:23:37.045Z,101986.47
2022-10-06T07:26:07.662Z,101994.78
2022-10-06T07:28:34.310Z,102007.56
2022-10-06T07:31:01.575Z,101995.56
2022-10-06T07:33:32.398Z,102020.16
2022-10-06T07:36:00.786Z,102008.66
2022-10-06T07:38:28.563Z,102013.81
2022-10-06T07:41:19.219Z,102019.38
2022-10-06T07:43:53.690Z,102027.50
2022-10-06T07:46:20.683Z,102028.78
2022-10-06T07:48:55.727Z,102038.53
2022-10-06T07:51:24.582Z,102042.19
2022-10-06T07:53:51.467Z,102050.34
2022-10-06T07:56:38.282Z,102051.13
2022-10-06T07:59:04.777Z,102062.63
2022-10-06T08:01:31.435Z,102060.06
2022-10-06T08:03:58.210Z,102067.41
2022-10-06T08:06:24.841Z,102076.84
2022-10-06T08:08:56.534Z,102073.16
2022-10-06T08:11:23.303Z,102079.22
2022-10-06T08:13:51.772Z,102080.19
2022-10-06T08:16:20.978Z,102081.59
2022-10-06T08:18:54.794Z,102091.03
2022-10-06T08:21:25.856Z,102099.19
2022-10-06T08:23:53.722Z,102111.47
2022-10-06T08:26:22.048Z,102107.31
2022-10-06T08:28:51.021Z,102105.41
2022-10-06T08:31:21.214Z,102116.25
2022-10-06T08:33:48.979Z,102128.53
2022-10-06T08:36:19.106Z,102117.88
2022-10-06T08:38:50.258Z,102126.78
2022-10-06T08:41:24.851Z,102126.78
2022-10-06T08:44:04.435Z,102126.00
2022-10-06T08:46:40.114Z,102128.72
2022-10-06T08:49:15.474Z,102138.91
2022-10-06T08:51:55.182Z,102156.97
2022-10-06T08:54:30.048Z,102137.34
2022-10-06T08:57:05.491Z,102145.47
2022-10-06T08:59:34.248Z,102155.19
2022-10-06T09:02:04.657Z,102156.81
2022-10-06T09:04:33.157Z,102153.47
2022-10-06T09:07:06.547Z,102153.47
2022-10-06T09:10:08.120Z,102158.41
2022-10-06T09:12:53.973Z,102162.38
2022-10-06T09:15:20.737Z,102160.34
2022-10-06T09:18:00.248Z,102162.38
2022-10-06T09:20:35.789Z,102172.16
2022-10-06T09:23:06.784Z,102171.19
2022-10-06T09:25:33.836Z,102181.38
2022-10-06T09:28:03.249Z,102187.63
2022-10-06T09:30:29.924Z,102181.72
2022-10-06T09:33:02.719Z,102189.06
2022-10-06T09:35:31.441Z,102198.97
2022-10-06T09:38:08.276Z,102199.59
2022-10-06T09:40:49.330Z,102206.97
2022-10-06T09:43:25.479Z,102203.59
2022-10-06T09:46:16.657Z,102206.97
2022-10-06T09:48:43.177Z,102210.94
2022-10-06T09:51:13.587Z,102212.53
2022-10-06T09:53:44.860Z,102216.53
2022-10-06T09:56:18.752Z,102215.25
2022-10-06T09:58:56.904Z,102220.69
2022-10-06T10:01:29.340Z,102223.88
2022-10-06T10:04:19.321Z,102229.63
2022-10-06T10:06:46.948Z,102227.22
2022-10-06T10:09:21.837Z,102229.97
2022-10-06T10:12:25.267Z,102229.97
2022-10-06T10:14:52.839Z,102225.31
2022-10-06T10:17:48.663Z,102232.84
2022-10-06T10:20:29.574Z,102228.66
2022-10-06T10:22:59.428Z,102237.47
2022-10-06T10:25:34.495Z,102236.66
2022-10-06T10:28:23.565Z,102249.75
2022-10-06T10:31:08.317Z,102244.81
2022-10-06T10:33:53.928Z,102254.88
2022-10-06T10:36:37.989Z,102247.84
2022-10-06T10:39:11.766Z,102253.91
2022-10-06T10:41:49.146Z,102254.72
2022-10-06T10:44:44.964Z,102256.63
2022-10-06T10:47:17.524Z,102264.28
2022-10-06T10:49:52.915Z,102262.22
2022-10-06T10:52:23.090Z,102256.78
2022-10-06T10:55:14.317Z,102260.44
2022-10-06T10:57:43.941Z,102262.38
2022-10-06T11:00:28.051Z,102269.25
2022-10-06T11:03:00.878Z,102270.81
2022-10-06T11:05:38.362Z,102280.41
2022-10-06T11:08:30.949Z,102283.63
2022-10-06T11:11:00.622Z,102292.56
2022-10-06T11:13:45.794Z,102290.00
2022-10-06T11:16:18.808Z,102290.66
2022-10-06T11:19:15.138Z,102284.44
2022-10-06T11:22:11.118Z,102297.06
2022-10-06T11:24:54.094Z,102284.56
2022-10-06T11:27:30.128Z,102284.56
2022-10-06T11:30:11.424Z,102293.84
2022-10-06T11:33:07.292Z,102292.56
2022-10-06T11:35:37.127Z,102295.28
2022-10-06T11:38:15.636Z,102297.16
2022-10-06T11:40:58.603Z,102294.16
2022-10-06T11:43:49.048Z,102295.72
2022-10-06T11:46:32.093Z,102291.88
2022-10-06T11:49:29.744Z,102292.69
2022-10-06T11:52:08.033Z,102290.13
2022-10-06T11:54:44.669Z,102296.50
2022-10-06T11:57:29.336Z,102302.59
2022-10-06T12:00:06.038Z,102302.09
2022-10-06T12:02:37.418Z,102300.81
2022-10-06T12:05:35.661Z,102301.94
2022-10-06T12:07:56.771Z,102307.69
2022-10-06T12:10:29.189Z,102304.81
2022-10-06T12:14:01.561Z,102311.34
2022-10-06T12:19:31.974Z,102311.06
2022-10-06T12:22:09.407Z,102302.72
2022-10-06T12:25:05.238Z,102305.28
2022-10-06T12:27:44.708Z,102305.28
2022-10-06T12:30:14.173Z,102298.56
2022-10-06T12:32:52.366Z,102308.47
2022-10-06T12:35:24.682Z,102295.38
2022-10-06T12:37:56.148Z,102288.00
2022-10-06T12:40:49.459Z,102296.34
2022-10-06T12:43:18.783Z,102296.16
2022-10-06T12:46:16.317Z,102295.03
2022-10-06T12:49:01.468Z,102299.53
2022-10-06T12:54:23.010Z,102297.94
2022-10-06T12:57:01.122Z,102295.38
2022-10-06T12:59:33.771Z,102296.16
2022-10-06T13:02:17.447Z,102296.16
2022-10-06T13:05:11.589Z,102301.94
2022-10-06T13:08:05.441Z,102300.31
2022-10-06T13:10:33.050Z,102301.75
2022-10-06T13:13:00.793Z,102302.53
2022-10-06T13:15:39.996Z,102312.31
2022-10-06T13:18:22.916Z,102313.09
2022-10-06T13:20:58.927Z,102300.78
2022-10-06T13:23:36.792Z,102312.94
2022-10-06T13:26:05.100Z,102303.00
2022-10-06T13:28:43.519Z,102306.69
2022-10-06T13:31:27.309Z,102320.28
2022-10-06T13:34:09.843Z,102310.38
2022-10-06T13:36:42.081Z,102318.03
2022-10-06T13:39:20.534Z,102320.91
2022-10-06T13:41:54.366Z,102320.91
2022-10-06T13:44:27.496Z,102321.22
2022-10-06T13:46:58.469Z,102322.50
2022-10-06T13:49:29.946Z,102318.66
2022-10-06T13:52:00.303Z,102323.13
2022-10-06T13:54:42.045Z,102316.88
2022-10-06T13:57:47.370Z,102317.38
2022-10-06T14:00:34.504Z,102327.00
2022-10-06T14:03:10.253Z,102316.09
2022-10-06T14:05:41.811Z,102316.41
2022-10-06T14:08:11.055Z,102317.19
2022-10-06T14:10:40.555Z,102321.69
2022-10-06T14:13:20.831Z,102322.16
2022-10-06T14:15:56.373Z,102315.91
2022-10-06T14:18:25.319Z,102315.44
2022-10-06T14:20:57.066Z,102310.66
2022-10-06T14:23:33.804Z,102317.00
2022-10-06T14:26:00.832Z,102317.34
2022-10-06T14:28:27.420Z,102322.78
2022-10-06T14:30:56.585Z,102322.78
2022-10-06T14:33:26.517Z,102311.72
2022-10-06T14:35:53.132Z,102329.34
2022-10-06T14:38:20.383Z,102321.19
2022-10-06T14:40:46.907Z,102325.66
2022-10-06T14:43:13.465Z,102335.13
2022-10-06T14:45:44.061Z,102328.88
2022-10-06T14:48:11.850Z,102325.16
2022-10-06T14:50:38.341Z,102331.75
2022-10-06T14:53:05.494Z,102333.03
2022-10-06T14:55:32.005Z,102335.91
2022-10-06T14:57:58.494Z,102333.50
2022-10-06T15:00:28.230Z,102326.97
2022-10-06T15:02:56.258Z,102324.56
2022-10-06T15:05:23.842Z,102334.78
2022-10-06T15:08:09.647Z,102331.13
2022-10-06T15:10:38.740Z,102332.72
2022-10-06T15:13:08.363Z,102334.00
2022-10-06T15:15:35.961Z,102336.09
2022-10-06T15:18:03.634Z,102342.34
2022-10-06T15:20:30.301Z,102345.22
2022-10-06T15:22:57.223Z,102345.22
2022-10-06T15:25:42.383Z,102342.50
2022-10-06T15:28:31.551Z,102346.97
2022-10-06T15:30:58.496Z,102339.63
2022-10-06T15:33:28.197Z,102347.78
2022-10-06T15:36:13.824Z,102349.56
2022-10-06T15:38:40.326Z,102355.31
2022-10-06T15:41:07.328Z,102356.09
2022-10-06T15:43:53.759Z,102352.44
2022-10-06T15:46:20.833Z,102357.06
2022-10-06T15:48:47.633Z,102358.69
2022-10-06T15:51:14.830Z,102361.25
2022-10-06T15:53:45.246Z,102354.69
2022-10-06T15:56:12.423Z,102358.84
2022-10-06T15:58:39.676Z,102360.63
2022-10-06T16:01:09.693Z,102360.91
2022-10-06T16:03:41.096Z,102358.56
2022-10-06T16:06:09.139Z,102369.75
2022-10-06T16:08:35.934Z,102367.34
2022-10-06T16:11:02.953Z,102359.19
2022-10-06T16:13:29.448Z,102361.59
2022-10-06T16:15:57.107Z,102373.09
2022-10-06T16:18:24.019Z,102362.53
2022-10-06T16:20:54.949Z,102368.31
2022-10-06T16:23:22.863Z,102378.25
2022-10-06T16:25:49.719Z,102375.84
2022-10-06T16:28:16.504Z,102375.50
2022-10-06T16:30:43.262Z,102375.69
2022-10-06T16:33:09.905Z,102371.22
2022-10-06T16:35:36.488Z,102374.09
2022-10-06T16:38:04.120Z,102381.13
2022-10-06T16:40:30.574Z,102370.75
2022-10-06T16:42:57.067Z,102384.69
2022-10-06T16:45:23.532Z,102384.84
2022-10-06T16:47:50.114Z,102389.47
2022-10-06T16:50:16.608Z,102397.81
2022-10-06T16:52:43.267Z,102397.81
2022-10-06T16:55:09.796Z,102400.03
2022-10-06T16:57:36.272Z,102402.28
2022-10-06T17:00:05.737Z,102404.34
2022-10-06T17:02:34.000Z,102404.03
2022-10-06T17:05:00.571Z,102406.28
2022-10-06T17:07:27.102Z,102409.63
2022-10-06T17:10:18.552Z,102406.91
2022-10-06T17:12:40.480Z,102406.13
2022-10-06T17:15:07.677Z,102414.91
2022-10-06T17:17:34.430Z,102410.56
2022-10-06T17:20:01.019Z,102409.44
2022-10-06T17:22:27.530Z,102415.38
2022-10-06T17:24:54.026Z,102415.06
2022-10-06T17:27:20.599Z,102405.75
2022-10-06T17:29:47.216Z,102419.38
2022-10-06T17:32:14.885Z,102402.88
2022-10-06T17:34:45.602Z,102410.22
2022-10-06T17:37:12.556Z,102418.88
2022-10-06T17:39:41.563Z,102409.56
2022-10-06T17:42:13.653Z,102408.47
2022-10-06T17:44:40.251Z,102407.34
2022-10-06T17:47:07.362Z,102406.22
2022-10-06T17:49:34.899Z,102412.13
2022-10-06T17:52:04.473Z,102408.59
2022-10-06T17:54:32.525Z,102413.22
2022-10-06T17:56:59.768Z,102411.78
2022-10-06T17:59:31.616Z,102414.66
2022-10-06T18:02:01.493Z,102412.72
2022-10-06T18:04:28.895Z,102422.31
2022-10-06T18:06:55.670Z,102418.31
2022-10-06T18:09:22.580Z,102424.22
2022-10-06T18:11:54.550Z,102420.19
2022-10-06T18:14:24.452Z,102414.59
2022-10-06T18:16:57.498Z,102421.97
2022-10-06T18:19:35.632Z,102421.31
2022-10-06T18:22:04.808Z,102420.16
2022-10-06T18:24:31.803Z,102418.22
2022-10-06T18:27:00.073Z,102415.88
2022-10-06T18:29:30.403Z,102420.47
2022-10-06T18:32:09.140Z,102421.41
2022-10-06T18:37:29.958Z,102413.09
2022-10-06T18:39:57.376Z,102424.59
2022-10-06T18:42:24.014Z,102408.09
2022-10-06T18:45:08.791Z,102420.25
2022-10-06T18:48:04.341Z,102416.72
2022-10-06T18:50:32.197Z,102414.47
2022-10-06T18:52:58.634Z,102406.31
2022-10-06T18:55:26.272Z,102416.19
2022-10-06T18:57:52.720Z,102421.63
2022-10-06T19:00:19.118Z,102420.13
2022-10-06T19:02:48.453Z,102427.84
2022-10-06T19:05:17.157Z,102427.16
2022-10-06T19:07:43.889Z,102427.16
2022-10-06T19:10:10.761Z,102426.16
2022-10-06T19:12:37.186Z,102431.09
2022-10-06T19:15:03.984Z,102427.41
2022-10-06T19:17:30.518Z,102434.91
2022-10-06T19:19:57.051Z,102430.91
2022-10-06T19:22:25.008Z,102431.84
2022-10-06T19:24:52.125Z,102439.19
2022-10-06T19:27:23.815Z,102439.00
2022-10-06T19:29:54.217Z,102437.38
2022-10-06T19:32:24.055Z,102440.25
2022-10-06T19:34:50.588Z,102439.13
2022-10-06T19:37:17.458Z,102436.41
2022-10-06T19:39:46.621Z,102434.00
2022-10-06T19:42:34.349Z,102434.94
2022-10-06T19:45:01.011Z,102428.50
2022-10-06T19:47:27.796Z,102436.00
2022-10-06T19:49:58.286Z,102434.88
2022-10-06T19:52:25.610Z,102419.50
2022-10-06T19:54:52.282Z,102421.44
2022-10-06T19:57:18.745Z,102417.91
2022-10-06T19:59:45.142Z,102423.16
2022-10-06T20:02:11.812Z,102421.25
2022-10-06T20:04:39.499Z,102406.81
2022-10-06T20:07:05.970Z,102411.63
2022-10-06T20:09:32.549Z,102414.63
2022-10-06T20:12:00.255Z,102429.31
2022-10-06T20:14:27.250Z,102416.38
2022-10-06T20:16:55.498Z,102438.88
2022-10-06T20:19:23.431Z,102433.72
2022-10-06T20:21:50.313Z,102430.38
2022-10-06T20:24:24.850Z,102429.72
2022-10-06T20:26:52.953Z,102433.03
2022-10-06T20:29:23.988Z,102436.50
2022-10-06T20:31:53.164Z,102444.66
2022-10-06T20:34:24.872Z,102442.25
2022-10-06T20:36:55.919Z,102440.63
2022-10-06T20:39:42.197Z,102446.03
2022-10-06T20:42:14.515Z,102442.03
2022-10-06T20:44:42.249Z,102427.16
2022-10-06T20:47:09.009Z,102437.69
2022-10-06T20:49:35.769Z,102435.28
2022-10-06T20:52:03.179Z,102437.00
2022-10-06T20:54:36.073Z,102436.31
2022-10-06T20:57:06.787Z,102442.06
2022-10-06T20:59:36.713Z,102443.81
2022-10-06T21:02:05.057Z,102437.28
2022-10-06T21:04:32.155Z,102432.94
2022-10-06T21:06:58.739Z,102438.31
2022-10-06T21:09:25.348Z,102437.50
2022-10-06T21:11:51.922Z,102440.06
2022-10-06T21:14:18.652Z,102442.22
2022-10-06T21:16:46.824Z,102441.31
2022-10-06T21:19:16.023Z,102434.91
2022-10-06T21:21:45.837Z,102432.97
2022-10-06T21:24:12.388Z,102436.63
2022-10-06T21:26:39.743Z,102420.78
2022-10-06T21:29:07.311Z,102419.19
2022-10-06T21:31:33.895Z,102429.41
2022-10-06T21:34:01.462Z,102420.56
2022-10-06T21:36:31.255Z,102422.63
2022-10-06T21:38:58.762Z,102428.34
2022-10-06T21:41:28.449Z,102425.16
2022-10-06T21:44:00.779Z,102421.94
2022-10-06T21:46:32.855Z,102431.81
2022-10-06T21:49:00.942Z,102418.38
2022-10-06T21:51:30.057Z,102420.47
2022-10-06T21:53:58.076Z,102412.31
2022-10-06T21:56:26.355Z,102418.50
2022-10-06T21:58:55.680Z,102417.34
2022-10-06T22:01:25.266Z,102417.47
2022-10-06T22:03:52.166Z,102418.28
2022-10-06T22:06:19.925Z,102417.59
2022-10-06T22:08:47.395Z,102410.25
2022-10-06T22:11:17.690Z,102418.88
2022-10-06T22:13:47.697Z,102422.66
2022-10-06T22:16:17.222Z,102407.97
2022-10-06T22:18:43.796Z,102401.22
2022-10-06T22:21:20.834Z,102413.00
2022-10-06T22:23:53.077Z,102409.03
2022-10-06T22:26:19.633Z,102407.88
2022-10-06T22:28:48.713Z,102419.31
2022-10-06T22:31:16.906Z,102413.25
2022-10-06T22:33:44.859Z,102413.72
2022-10-06T22:36:13.730Z,102401.09
2022-10-06T22:38:40.595Z,102407.28
2022-10-06T22:41:10.168Z,102400.44
2022-10-06T22:43:37.069Z,102392.88
2022-10-06T22:46:05.139Z,102393.34
2022-10-06T22:48:31.874Z,102404.78
2022-10-06T22:50:58.626Z,102394.59
2022-10-06T22:53:28.147Z,102399.84
2022-10-06T22:55:55.805Z,102394.25
2022-10-06T22:58:22.780Z,102399.19
2022-10-06T23:00:49.341Z,102388.72
2022-10-06T23:03:17.342Z,102385.41
2022-10-06T23:05:53.612Z,102385.53
2022-10-06T23:08:20.126Z,102390.59
2022-10-06T23:10:46.668Z,102383.13
2022-10-06T23:13:13.494Z,102376.25
2022-10-06T23:15:40.109Z,102371.09
2022-10-06T23:18:08.225Z,102371.44
2022-10-06T23:20:34.825Z,102366.28
2022-10-06T23:23:01.347Z,102363.41
2022-10-06T23:25:27.967Z,102366.28
2022-10-06T23:27:54.491Z,102362.28
2022-10-06T23:30:21.017Z,102361.13
2022-10-06T23:32:47.519Z,102368.13
2022-10-06T23:35:14.052Z,102367.75
2022-10-06T23:37:40.644Z,102365.81
2022-10-06T23:40:07.726Z,102360.91
2022-10-06T23:42:34.297Z,102352.06
2022-10-06T23:45:00.864Z,102348.88
2022-10-06T23:47:27.355Z,102335.31
2022-10-06T23:49:54.301Z,102342.53
2022-10-06T23:52:20.812Z,102360.31
2022-10-06T23:54:47.909Z,102348.53
2022-10-06T23:57:14.468Z,102347.47
2022-10-06T23:59:40.941Z,102350.69
